createdAt,value
2019-01-19T00:01:41.897Z,6.27
2019-01-19T00:05:00.385Z,6.00
2019-01-19T00:07:56.898Z,10.47
2019-01-19T00:11:03.668Z,5.73
2019-01-19T00:14:01.677Z,4.20
2019-01-19T00:17:04.606Z,11.80
2019-01-19T00:20:09.535Z,12.40
2019-01-19T00:23:08.012Z,8.83
2019-01-19T00:26:20.644Z,7.60
2019-01-19T00:29:36.158Z,6.80
2019-01-19T00:32:31.895Z,3.70
2019-01-19T00:35:26.251Z,4.60
2019-01-19T00:38:33.936Z,6.57
2019-01-19T00:41:43.957Z,3.43
2019-01-19T00:44:50.093Z,8.23
2019-01-19T00:47:56.520Z,4.20
2019-01-19T00:51:15.282Z,4.97
2019-01-19T00:54:13.353Z,8.20
2019-01-19T00:57:18.829Z,3.50
2019-01-19T01:00:12.520Z,7.87
2019-01-19T01:03:20.841Z,7.50
2019-01-19T01:06:45.664Z,5.20
2019-01-19T01:09:42.800Z,6.73
2019-01-19T01:12:51.879Z,7.60
2019-01-19T01:15:56.826Z,5.50
2019-01-19T01:19:06.185Z,8.40
2019-01-19T01:22:27.449Z,8.03
2019-01-19T01:25:24.361Z,8.63
2019-01-19T01:28:33.360Z,4.20
2019-01-19T01:31:39.741Z,6.77
2019-01-19T01:34:45.905Z,9.90
2019-01-19T01:37:50.855Z,8.70
2019-01-19T01:41:15.526Z,4.40
2019-01-19T01:44:23.979Z,7.33
2019-01-19T01:47:30.541Z,9.40
2019-01-19T01:50:29.181Z,9.10
2019-01-19T01:53:25.981Z,8.90
2019-01-19T01:56:14.359Z,5.77
2019-01-19T01:59:19.030Z,9.30
2019-01-19T02:02:10.229Z,10.70
2019-01-19T02:05:15.712Z,10.60
2019-01-19T02:08:17.132Z,12.07
2019-01-19T02:11:26.647Z,11.63
2019-01-19T02:14:36.087Z,9.77
2019-01-19T02:17:49.408Z,11.20
2019-01-19T02:20:58.428Z,10.57
2019-01-19T02:23:48.026Z,12.50
2019-01-19T02:27:03.366Z,11.87
2019-01-19T02:29:57.927Z,11.50
2019-01-19T02:33:13.434Z,14.47
2019-01-19T02:36:18.298Z,10.97
2019-01-19T02:39:13.099Z,11.20
2019-01-19T02:42:18.113Z,11.73
2019-01-19T02:45:42.501Z,10.93
2019-01-19T02:48:54.549Z,10.80
2019-01-19T02:51:59.483Z,11.57
2019-01-19T02:55:01.720Z,11.97
2019-01-19T02:58:08.737Z,12.30
2019-01-19T03:01:21.303Z,13.57
2019-01-19T03:04:15.615Z,14.87
2019-01-19T03:07:33.745Z,13.23
2019-01-19T03:10:32.371Z,13.53
2019-01-19T03:13:25.582Z,13.33
2019-01-19T03:16:30.766Z,13.90
2019-01-19T03:19:28.009Z,12.40
2019-01-19T03:22:32.476Z,14.80
2019-01-19T03:25:57.229Z,12.03
2019-01-19T03:28:58.486Z,13.17
2019-01-19T03:32:22.325Z,13.50
2019-01-19T03:35:34.357Z,13.23
2019-01-19T03:38:39.906Z,13.30
2019-01-19T03:42:01.570Z,13.37
2019-01-19T03:45:10.669Z,13.07
2019-01-19T03:48:18.866Z,12.67
2019-01-19T03:51:33.607Z,11.43
2019-01-19T03:54:42.259Z,14.77
2019-01-19T03:57:36.331Z,13.50
2019-01-19T04:00:48.586Z,12.63
2019-01-19T04:03:53.683Z,14.63
2019-01-19T04:06:56.568Z,13.07
2019-01-19T04:10:12.204Z,14.20
2019-01-19T04:13:21.447Z,13.43
2019-01-19T04:16:34.391Z,12.37
2019-01-19T04:19:41.714Z,16.40
2019-01-19T04:22:48.576Z,12.03
2019-01-19T04:25:42.879Z,12.80
2019-01-19T04:28:30.258Z,13.60
2019-01-19T04:31:17.528Z,12.80
2019-01-19T04:34:05.323Z,12.63
2019-01-19T04:36:52.179Z,13.63
2019-01-19T04:39:39.086Z,12.77
2019-01-19T04:42:26.213Z,12.30
2019-01-19T04:45:13.277Z,13.57
2019-01-19T04:48:00.724Z,13.00
2019-01-19T04:50:47.704Z,14.13
2019-01-19T04:53:34.634Z,13.63
2019-01-19T04:56:21.526Z,13.87
2019-01-19T04:59:08.438Z,15.23
2019-01-19T05:01:56.202Z,15.93
2019-01-19T05:04:43.029Z,15.17
2019-01-19T05:07:30.111Z,16.27
2019-01-19T05:10:17.171Z,15.97
2019-01-19T05:13:03.921Z,16.83
2019-01-19T05:15:50.868Z,15.57
2019-01-19T05:18:37.753Z,15.63
2019-01-19T05:21:25.123Z,17.27
2019-01-19T05:24:12.480Z,16.13
2019-01-19T05:27:03.153Z,13.83
2019-01-19T05:29:49.964Z,14.90
2019-01-19T05:32:36.807Z,15.70
2019-01-19T05:35:23.761Z,16.77
2019-01-19T05:38:11.229Z,19.17
2019-01-19T05:40:58.346Z,14.87
2019-01-19T05:43:45.431Z,16.00
2019-01-19T05:46:32.206Z,13.10
2019-01-19T05:49:19.143Z,12.30
2019-01-19T05:52:06.409Z,15.87
2019-01-19T05:54:53.616Z,9.80
2019-01-19T05:57:40.840Z,25.73
2019-01-19T06:00:33.290Z,6.43
2019-01-19T06:03:20.587Z,8.53
2019-01-19T06:06:08.120Z,9.27
2019-01-19T06:08:55.060Z,6.43
2019-01-19T06:11:42.524Z,7.77
2019-01-19T06:14:29.876Z,11.43
2019-01-19T06:17:16.965Z,10.60
2019-01-19T06:20:04.333Z,8.03
2019-01-19T06:22:51.311Z,9.23
2019-01-19T06:25:38.573Z,7.63
2019-01-19T06:28:25.574Z,9.87
2019-01-19T06:31:12.743Z,10.10
2019-01-19T06:33:59.542Z,11.43
2019-01-19T06:36:54.575Z,12.60
2019-01-19T06:39:35.111Z,7.50
2019-01-19T06:42:22.278Z,9.07
2019-01-19T06:45:10.960Z,5.87
2019-01-19T06:47:57.868Z,14.57
2019-01-19T06:50:45.179Z,10.70
2019-01-19T06:53:32.645Z,8.70
2019-01-19T06:56:20.132Z,16.97
2019-01-19T06:59:07.593Z,15.60
2019-01-19T07:01:54.920Z,14.57
2019-01-19T07:04:41.932Z,12.07
2019-01-19T07:07:29.444Z,16.90
2019-01-19T07:10:17.912Z,19.37
2019-01-19T07:13:05.446Z,23.20
2019-01-19T07:15:53.715Z,14.03
2019-01-19T07:18:41.491Z,15.23
2019-01-19T07:21:28.410Z,15.30
2019-01-19T07:24:15.765Z,12.80
2019-01-19T07:27:03.043Z,14.77
2019-01-19T07:29:50.389Z,11.83
2019-01-19T07:32:38.167Z,10.07
2019-01-19T07:35:25.353Z,13.40
2019-01-19T07:38:12.330Z,9.67
2019-01-19T07:40:59.762Z,10.93
2019-01-19T07:43:47.560Z,12.20
2019-01-19T07:46:35.867Z,13.27
2019-01-19T07:49:22.892Z,11.40
2019-01-19T07:52:10.048Z,13.97
2019-01-19T07:54:58.551Z,15.93
2019-01-19T07:57:46.341Z,14.23
2019-01-19T08:00:33.964Z,13.30
2019-01-19T08:03:21.511Z,11.90
2019-01-19T08:06:08.627Z,8.40
2019-01-19T08:08:57.474Z,17.60
2019-01-19T08:11:44.582Z,18.40
2019-01-19T08:14:31.663Z,5.90
2019-01-19T08:17:20.574Z,8.47
2019-01-19T08:20:09.434Z,15.57
2019-01-19T08:22:56.730Z,14.43
2019-01-19T08:25:43.862Z,15.67
2019-01-19T08:28:31.178Z,15.60
2019-01-19T08:31:18.367Z,18.07
2019-01-19T08:34:05.948Z,8.93
2019-01-19T08:36:53.112Z,13.27
2019-01-19T08:39:40.607Z,18.73
2019-01-19T08:42:27.709Z,15.90
2019-01-19T08:45:16.607Z,15.03
2019-01-19T08:48:05.233Z,15.47
2019-01-19T08:50:54.064Z,14.23
2019-01-19T08:53:42.848Z,6.77
2019-01-19T08:56:30.396Z,12.70
2019-01-19T08:59:17.496Z,17.50
2019-01-19T09:02:05.393Z,11.40
2019-01-19T09:04:52.420Z,8.47
2019-01-19T09:07:41.352Z,14.67
2019-01-19T09:10:28.857Z,16.30
2019-01-19T09:13:16.459Z,16.90
2019-01-19T09:16:06.778Z,16.10
2019-01-19T09:18:57.202Z,15.50
2019-01-19T09:21:46.932Z,18.80
2019-01-19T09:24:34.581Z,18.73
2019-01-19T09:36:02.611Z,12.53
2019-01-19T09:38:49.809Z,10.73
2019-01-19T09:41:37.199Z,8.93
2019-01-19T09:44:24.961Z,16.20
2019-01-19T09:47:12.165Z,16.80
2019-01-19T09:50:00.240Z,15.13
2019-01-19T09:52:47.437Z,14.73
2019-01-19T09:55:34.539Z,15.43
2019-01-19T09:58:22.088Z,15.00
2019-01-19T10:01:09.262Z,14.27
2019-01-19T10:03:56.447Z,12.80
2019-01-19T10:06:43.549Z,15.00
2019-01-19T10:09:32.985Z,14.90
2019-01-19T10:12:20.467Z,12.27
2019-01-19T10:15:08.708Z,17.27
2019-01-19T10:17:57.194Z,11.97
2019-01-19T10:20:44.174Z,9.77
2019-01-19T10:23:32.181Z,11.93
2019-01-19T10:26:19.694Z,16.70
2019-01-19T10:29:06.832Z,9.57
2019-01-19T10:31:54.432Z,14.13
2019-01-19T10:34:41.559Z,14.73
2019-01-19T10:37:28.726Z,14.00
2019-01-19T10:40:17.202Z,13.40
2019-01-19T10:43:05.155Z,14.10
2019-01-19T10:45:53.151Z,13.80
2019-01-19T10:48:41.211Z,15.00
2019-01-19T10:51:31.000Z,13.10
2019-01-19T10:54:18.243Z,15.60
2019-01-19T10:57:06.611Z,10.70
2019-01-19T10:59:54.015Z,11.40
2019-01-19T11:02:41.560Z,13.97
2019-01-19T11:05:29.207Z,13.53
2019-01-19T11:08:17.778Z,14.80
2019-01-19T11:11:05.015Z,17.30
2019-01-19T11:13:52.429Z,17.00
2019-01-19T11:16:40.852Z,14.70
2019-01-19T11:19:28.506Z,15.00
2019-01-19T11:22:16.814Z,14.80
2019-01-19T11:25:04.965Z,14.70
2019-01-19T11:27:53.021Z,16.87
2019-01-19T11:30:41.182Z,11.57
2019-01-19T11:33:30.580Z,18.20
2019-01-19T11:36:17.827Z,12.10
2019-01-19T11:39:06.986Z,13.30
2019-01-19T11:41:54.629Z,13.67
2019-01-19T11:44:41.905Z,13.73
2019-01-19T11:47:29.403Z,13.53
2019-01-19T11:50:17.030Z,14.60
2019-01-19T11:53:04.669Z,12.50
2019-01-19T12:41:22.116Z,10.63
2019-01-19T13:43:37.317Z,9.10
2019-01-19T13:46:50.279Z,10.40
2019-01-19T13:50:01.544Z,10.30
2019-01-19T13:53:06.630Z,10.13
2019-01-19T13:56:33.387Z,11.73
2019-01-19T13:59:38.959Z,10.40
2019-01-19T14:02:45.311Z,10.60
2019-01-19T14:05:58.096Z,9.83
2019-01-19T14:08:56.642Z,9.33
2019-01-19T14:12:02.258Z,10.23
2019-01-19T14:15:10.841Z,10.50
2019-01-19T14:18:20.919Z,10.77
2019-01-19T14:21:27.175Z,10.17
2019-01-19T14:24:45.541Z,9.30
2019-01-19T14:27:55.307Z,8.90
2019-01-19T14:30:50.597Z,8.20
2019-01-19T14:34:15.726Z,8.53
2019-01-19T14:37:22.006Z,6.87
2019-01-19T14:40:16.320Z,8.70
2019-01-19T14:43:25.997Z,8.53
2019-01-19T14:46:41.979Z,8.37
2019-01-19T14:49:34.470Z,9.10
2019-01-19T14:52:27.697Z,7.07
2019-01-19T14:55:21.815Z,8.50
2019-01-19T14:58:37.285Z,9.17
2019-01-19T15:01:46.754Z,8.30
2019-01-19T15:04:52.502Z,8.13
2019-01-19T15:16:08.098Z,7.53
2019-01-19T15:19:13.746Z,9.13
2019-01-19T15:22:19.110Z,9.87
2019-01-19T15:25:24.996Z,10.63
2019-01-19T15:28:35.773Z,9.40
2019-01-19T15:31:32.147Z,10.90
2019-01-19T15:34:49.695Z,12.23
2019-01-19T15:37:56.098Z,10.50
2019-01-19T15:41:02.491Z,13.70
2019-01-19T15:44:13.338Z,14.60
2019-01-19T15:47:19.231Z,12.83
2019-01-19T15:50:29.995Z,14.27
2019-01-19T15:53:36.942Z,15.00
2019-01-19T15:56:52.229Z,14.70
2019-01-19T15:59:57.149Z,15.40
2019-01-19T16:03:02.425Z,15.23
2019-01-19T16:06:24.403Z,15.57
2019-01-19T16:09:31.122Z,14.43
2019-01-19T16:12:32.205Z,16.60
